地図

経路データ

SID SEASON NUMBER BASIN SUBBASIN NAME ISO_TIME NATURE LAT LON WMO_WIND WMO_PRES WMO_AGENCY TRACK_TYPE DIST2LAND LANDFALL IFLAG USA_AGENCY USA_ATCF_ID USA_LAT USA_LON USA_RECORD USA_STATUS USA_WIND USA_PRES USA_SSHS USA_R34_NE USA_R34_SE USA_R34_SW USA_R34_NW USA_R50_NE USA_R50_SE USA_R50_SW USA_R50_NW USA_R64_NE USA_R64_SE USA_R64_SW USA_R64_NW USA_POCI USA_ROCI USA_RMW USA_EYE TOKYO_LAT TOKYO_LON TOKYO_GRADE TOKYO_WIND TOKYO_PRES TOKYO_R50_DIR TOKYO_R50_LONG TOKYO_R50_SHORT TOKYO_R30_DIR TOKYO_R30_LONG TOKYO_R30_SHORT TOKYO_LAND CMA_LAT CMA_LON CMA_CAT CMA_WIND CMA_PRES HKO_LAT HKO_LON HKO_CAT HKO_WIND HKO_PRES NEWDELHI_LAT NEWDELHI_LON NEWDELHI_GRADE NEWDELHI_WIND NEWDELHI_PRES NEWDELHI_CI NEWDELHI_DP NEWDELHI_POCI REUNION_LAT REUNION_LON REUNION_TYPE REUNION_WIND REUNION_PRES REUNION_TNUM REUNION_CI REUNION_RMW REUNION_R34_NE REUNION_R34_SE REUNION_R34_SW REUNION_R34_NW REUNION_R50_NE REUNION_R50_SE REUNION_R50_SW REUNION_R50_NW REUNION_R64_NE REUNION_R64_SE REUNION_R64_SW REUNION_R64_NW BOM_LAT BOM_LON BOM_TYPE BOM_WIND BOM_PRES BOM_TNUM BOM_CI BOM_RMW BOM_R34_NE BOM_R34_SE BOM_R34_SW BOM_R34_NW BOM_R50_NE BOM_R50_SE BOM_R50_SW BOM_R50_NW BOM_R64_NE BOM_R64_SE BOM_R64_SW BOM_R64_NW BOM_ROCI BOM_POCI BOM_EYE BOM_POS_METHOD BOM_PRES_METHOD NADI_LAT NADI_LON NADI_CAT NADI_WIND NADI_PRES WELLINGTON_LAT WELLINGTON_LON WELLINGTON_WIND WELLINGTON_PRES DS824_LAT DS824_LON DS824_STAGE DS824_WIND DS824_PRES TD9636_LAT TD9636_LON TD9636_STAGE TD9636_WIND TD9636_PRES TD9635_LAT TD9635_LON TD9635_WIND TD9635_PRES TD9635_ROCI NEUMANN_LAT NEUMANN_LON NEUMANN_CLASS NEUMANN_WIND NEUMANN_PRES MLC_LAT MLC_LON MLC_CLASS MLC_WIND MLC_PRES USA_GUST BOM_GUST BOM_GUST_PER REUNION_GUST REUNION_GUST_PER USA_SEAHGT USA_SEARAD_NE USA_SEARAD_SE USA_SEARAD_SW USA_SEARAD_NW STORM_SPEED STORM_DIR
1901162N19278 1901 19 NA CS NOT_NAMED 1901-06-11 00:00:00 TS 19.3000 -82.3000 25 hurdat_atl main 240 202 O_____________ hurdat_atl AL011901 19.3000 -82.3000 TD 25 -1 10 315
1901162N19278 1901 19 NA CS NOT_NAMED 1901-06-11 03:00:00 TS 19.6502 -82.6671 main 190 157 P_____________ AL011901 19.6502 -82.6671 TD 25 -1 10 317
1901162N19278 1901 19 NA CS NOT_NAMED 1901-06-11 06:00:00 TS 20.0000 -83.0000 25 hurdat_atl main 157 129 O_____________ hurdat_atl AL011901 20.0000 -83.0000 TD 25 -1 9 321
1901162N19278 1901 19 NA CS NOT_NAMED 1901-06-11 09:00:00 TS 20.3499 -83.2727 main 133 103 P_____________ AL011901 20.3499 -83.2727 TD 27 -1 8 326
1901162N19278 1901 19 NA CS NOT_NAMED 1901-06-11 12:00:00 TS 20.7000 -83.5000 30 hurdat_atl main 103 91 O_____________ hurdat_atl AL011901 20.7000 -83.5000 TD 30 -1 8 330
1901162N19278 1901 19 NA CS NOT_NAMED 1901-06-11 15:00:00 TS 21.0499 -83.7076 main 91 56 P_____________ AL011901 21.0499 -83.7076 TD 30 -1 8 332
1901162N19278 1901 19 NA CS NOT_NAMED 1901-06-11 18:00:00 TS 21.4000 -83.9000 30 hurdat_atl main 56 22 O_____________ hurdat_atl AL011901 21.4000 -83.9000 TD 30 -1 8 332
1901162N19278 1901 19 NA CS NOT_NAMED 1901-06-11 21:00:00 TS 21.7425 -84.1001 main 22 0 P_____________ AL011901 21.7425 -84.1001 TD 32 -1 8 332
1901162N19278 1901 19 NA NA NOT_NAMED 1901-06-12 00:00:00 TS 22.1000 -84.3000 35 hurdat_atl main 0 0 O_____________ hurdat_atl AL011901 22.1000 -84.3000 TS 35 0 8 333
1901162N19278 1901 19 NA GM NOT_NAMED 1901-06-12 03:00:00 TS 22.4700 -84.5076 main 23 23 P_____________ AL011901 22.4700 -84.5076 TS 35 0 9 335
1901162N19278 1901 19 NA GM NOT_NAMED 1901-06-12 06:00:00 TS 22.9000 -84.7000 35 hurdat_atl main 68 68 O_____________ hurdat_atl AL011901 22.9000 -84.7000 TS 35 0 10 341
1901162N19278 1901 19 NA GM NOT_NAMED 1901-06-12 09:00:00 TS 23.4275 -84.8650 main 120 120 P_____________ AL011901 23.4275 -84.8650 TS 35 0 11 346
1901162N19278 1901 19 NA GM NOT_NAMED 1901-06-12 12:00:00 TS 24.0000 -85.0000 35 hurdat_atl main 177 177 O_____________ hurdat_atl AL011901 24.0000 -85.0000 TS 35 0 12 348
1901162N19278 1901 19 NA GM NOT_NAMED 1901-06-12 15:00:00 TS 24.5575 -85.1225 main 240 240 P_____________ AL011901 24.5575 -85.1225 TS 35 0 11 351
1901162N19278 1901 19 NA GM NOT_NAMED 1901-06-12 18:00:00 TS 25.1000 -85.2000 35 hurdat_atl main 294 294 O_____________ hurdat_atl AL011901 25.1000 -85.2000 TS 35 0 10 355
1901162N19278 1901 19 NA GM NOT_NAMED 1901-06-12 21:00:00 TS 25.5850 -85.2299 main 318 290 P_____________ AL011901 25.5850 -85.2299 TS 35 0 10 1
1901162N19278 1901 19 NA GM NOT_NAMED 1901-06-13 00:00:00 TS 26.1000 -85.2000 35 hurdat_atl main 290 255 O_____________ hurdat_atl AL011901 26.1000 -85.2000 TS 35 0 12 5
1901162N19278 1901 19 NA GM NOT_NAMED 1901-06-13 03:00:00 TS 26.7425 -85.1226 main 255 214 P_____________ AL011901 26.7425 -85.1226 TS 35 0 13 8
1901162N19278 1901 19 NA GM NOT_NAMED 1901-06-13 06:00:00 TS 27.4000 -85.0000 35 hurdat_atl main 214 196 O_____________ hurdat_atl AL011901 27.4000 -85.0000 TS 35 0 13 11
1901162N19278 1901 19 NA GM NOT_NAMED 1901-06-13 09:00:00 TS 27.9725 -84.8427 main 186 135 P_____________ AL011901 27.9725 -84.8427 TS 35 0 11 14
1901162N19278 1901 19 NA GM NOT_NAMED 1901-06-13 12:00:00 TS 28.5000 -84.7000 35 hurdat_atl main 135 83 O_____________ hurdat_atl AL011901 28.5000 -84.7000 TS 35 0 11 10
1901162N19278 1901 19 NA GM NOT_NAMED 1901-06-13 15:00:00 TS 29.0272 -84.6260 main 83 34 P_____________ AL011901 29.0272 -84.6260 TS 35 0 10 5
1901162N19278 1901 19 NA GM NOT_NAMED 1901-06-13 18:00:00 TS 29.5000 -84.6000 35 hurdat_atl main 34 0 O_____________ hurdat_atl AL011901 29.5000 -84.6000 TS 35 0 9 2
1901162N19278 1901 19 NA GM NOT_NAMED 1901-06-13 21:00:00 TS 29.9000 -84.6000 35 hurdat_atl main 0 0 O_____________ hurdat_atl AL011901 29.9000 -84.6000 L TS 35 0 10 355
1901162N19278 1901 19 NA NA NOT_NAMED 1901-06-14 00:00:00 TS 30.5000 -84.7000 30 hurdat_atl main 0 0 O_____________ hurdat_atl AL011901 30.5000 -84.7000 TD 30 -1 11 353
1901162N19278 1901 19 NA NA NOT_NAMED 1901-06-14 03:00:00 TS 31.0204 -84.7537 main 0 0 P_____________ AL011901 31.0204 -84.7537 TD 30 -1 10 355
1901162N19278 1901 19 NA NA NOT_NAMED 1901-06-14 06:00:00 TS 31.5000 -84.8000 30 hurdat_atl main 0 0 O_____________ hurdat_atl AL011901 31.5000 -84.8000 TD 30 -1 10 354
1901162N19278 1901 19 NA NA NOT_NAMED 1901-06-14 09:00:00 TS 31.9775 -84.8779 main 0 0 P_____________ AL011901 31.9775 -84.8779 TD 27 -1 10 350
1901162N19278 1901 19 NA NA NOT_NAMED 1901-06-14 12:00:00 TS 32.5000 -85.0000 25 hurdat_atl main 0 0 O_____________ hurdat_atl AL011901 32.5000 -85.0000 TD 25 -1 12 349
1901162N19278 1901 19 NA NA NOT_NAMED 1901-06-14 15:00:00 TS 33.1423 -85.1554 main 0 0 P_____________ AL011901 33.1423 -85.1554 TD 25 -1 13 345
1901162N19278 1901 19 NA NA NOT_NAMED 1901-06-14 18:00:00 TS 33.8000 -85.4000 25 hurdat_atl main 0 0 O_____________ hurdat_atl AL011901 33.8000 -85.4000 TD 25 -1 13 337
1901162N19278 1901 19 NA NA NOT_NAMED 1901-06-14 21:00:00 TS 34.3726 -85.7700 main 0 0 P_____________ AL011901 34.3726 -85.7700 TD 25 -1 13 329
1901162N19278 1901 19 NA NA NOT_NAMED 1901-06-15 00:00:00 TS 34.9000 -86.2000 25 hurdat_atl main 0 0 O_____________ hurdat_atl AL011901 34.9000 -86.2000 TD 25 -1 12 327
1901162N19278 1901 19 NA NA NOT_NAMED 1901-06-15 03:00:00 TS 35.3997 -86.5860 main 0 0 P_____________ AL011901 35.3997 -86.5860 TD 25 -1 12 327
1901162N19278 1901 19 NA NA NOT_NAMED 1901-06-15 06:00:00 TS 35.9000 -87.0000 25 hurdat_atl main 0 0 O_____________ hurdat_atl AL011901 35.9000 -87.0000 TD 25 -1 12 326
1901162N19278 1901 19 NA NA NOT_NAMED 1901-06-15 09:00:00 TS 36.4117 -87.4349 main 0 0 P_____________ AL011901 36.4117 -87.4349 TD 25 -1 14 324
1901162N19278 1901 19 NA NA NOT_NAMED 1901-06-15 12:00:00 TS 37.0000 -88.0000 25 hurdat_atl main 0 0 O_____________ hurdat_atl AL011901 37.0000 -88.0000 TD 25 -1 17 321
1901162N19278 1901 19 NA NA NOT_NAMED 1901-06-15 15:00:00 TS 37.7145 -88.7797 main 0 0 P_____________ AL011901 37.7145 -88.7797 TD 25 -1 20 318
1901162N19278 1901 19 NA NA NOT_NAMED 1901-06-15 18:00:00 TS 38.5000 -89.7000 25 hurdat_atl main 0 O_____________ hurdat_atl AL011901 38.5000 -89.7000 TD 25 -1 21 318

IBTrACS Databaseについて

本データベースは、米国NOAAが公開する1842年以降の世界の熱帯低気圧のベストトラックデータアーカイブInternational Best Track Archive for Climate Stewardship (IBTrACS)を、ウェブで閲覧しやすい形式に変換したものです。

最終更新日:2021-10-08